Time;durP1;ratioP1;P1;durP2;ratioP2;P2;SDS_P1;SDS_P2;PMS_P1;PMS_P2;Temp;Humidity;BMP_temperature;BMP_pressure;BME280_temperature;BME280_humidity;BME280_pressure;Samples;Min_cycle;Max_cycle;Signal;HPM_P1;HPM_P2
2023/06/11 00:00:57;;;;;;;4.30;4.00;;;;;;;14.40;100.00;102191.06;5034252;28;20432;-46
2023/06/11 00:03:25;;;;;;;7.40;3.97;;;;;;;14.38;100.00;102194.94;5033972;28;20476;-43
2023/06/11 00:05:53;;;;;;;4.97;4.17;;;;;;;14.41;100.00;102202.63;5034445;28;20806;-46
2023/06/11 00:08:21;;;;;;;4.93;4.00;;;;;;;14.37;100.00;102204.84;5034203;28;20456;-44
2023/06/11 00:10:49;;;;;;;7.37;4.90;;;;;;;14.38;100.00;102194.94;5034056;28;20432;-47
2023/06/11 00:13:18;;;;;;;4.00;3.80;;;;;;;14.33;100.00;102190.16;5033482;28;20992;-43
2023/06/11 00:15:46;;;;;;;7.80;4.33;;;;;;;14.35;100.00;102203.38;5034256;28;20532;-44
2023/06/11 00:18:14;;;;;;;4.63;4.30;;;;;;;14.36;100.00;102205.03;5033937;28;21206;-46
2023/06/11 00:20:42;;;;;;;4.20;3.70;;;;;;;14.33;100.00;102205.41;5033999;28;20432;-46
2023/06/11 00:23:10;;;;;;;4.50;4.20;;;;;;;14.32;100.00;102196.53;5033008;28;20989;-45
2023/06/11 00:25:38;;;;;;;5.30;4.23;;;;;;;14.32;100.00;102206.38;5033996;28;20999;-46
2023/06/11 00:28:06;;;;;;;5.20;3.83;;;;;;;14.31;100.00;102202.03;5029407;28;20488;-45
2023/06/11 00:30:35;;;;;;;4.50;4.10;;;;;;;14.27;100.00;102198.91;5033768;28;20831;-45
2023/06/11 00:33:03;;;;;;;4.37;3.93;;;;;;;14.28;100.00;102197.88;5033151;28;20463;-44
2023/06/11 00:35:30;;;;;;;4.30;3.90;;;;;;;14.25;100.00;102197.41;5033534;28;20872;-44
2023/06/11 00:37:58;;;;;;;5.00;4.23;;;;;;;14.24;100.00;102198.44;5033828;28;20488;-43
2023/06/11 00:40:26;;;;;;;4.53;4.20;;;;;;;14.25;100.00;102205.44;5032654;28;20482;-43
2023/06/11 00:42:54;;;;;;;6.07;4.33;;;;;;;14.22;100.00;102195.94;5032911;28;20464;-43
2023/06/11 00:45:24;;;;;;;4.67;4.27;;;;;;;14.24;100.00;102199.28;5033285;28;20981;-47
2023/06/11 00:47:53;;;;;;;8.43;4.53;;;;;;;14.22;100.00;102192.41;5033415;28;20495;-46
2023/06/11 00:50:21;;;;;;;8.67;4.23;;;;;;;14.22;100.00;102185.19;5033192;28;20464;-46
2023/06/11 00:52:49;;;;;;;6.00;4.40;;;;;;;14.21;100.00;102180.03;5032581;28;20989;-47
2023/06/11 00:55:17;;;;;;;4.47;4.13;;;;;;;14.19;100.00;102179.38;5033397;28;20432;-49
2023/06/11 00:57:48;;;;;;;6.23;4.20;;;;;;;14.19;100.00;102174.00;5033179;28;20463;-44
2023/06/11 01:00:17;;;;;;;5.90;4.10;;;;;;;14.19;100.00;102176.69;5033134;28;20841;-47
2023/06/11 01:02:49;;;;;;;4.97;4.47;;;;;;;14.19;100.00;102174.00;5032340;28;21093;-47
2023/06/11 01:05:22;;;;;;;9.07;4.43;;;;;;;14.13;100.00;102177.41;5032929;28;20472;-46
2023/06/11 01:07:55;;;;;;;6.03;5.43;;;;;;;14.14;100.00;102176.41;5032887;28;20456;-45
2023/06/11 01:10:23;;;;;;;7.10;4.50;;;;;;;14.14;100.00;102176.41;5033077;28;20432;-44
2023/06/11 01:12:51;;;;;;;8.40;5.13;;;;;;;14.11;100.00;102171.41;5032278;28;20883;-46
2023/06/11 01:15:18;;;;;;;6.37;4.70;;;;;;;14.13;100.00;102180.09;5032890;28;20834;-46
2023/06/11 01:17:54;;;;;;;8.20;5.10;;;;;;;14.14;100.00;102184.47;5017396;28;20476;-46
2023/06/11 01:20:34;;;;;;;8.03;5.20;;;;;;;14.13;100.00;102185.47;5010673;28;20872;-44
2023/06/11 01:23:17;;;;;;;5.73;5.17;;;;;;;14.10;100.00;102191.19;5010346;28;20890;-45
2023/06/11 01:25:55;;;;;;;8.10;4.87;;;;;;;14.09;100.00;102192.25;5012823;28;20551;-44
2023/06/11 01:28:31;;;;;;;6.30;5.47;;;;;;;14.10;100.00;102193.88;5023476;28;20488;-44
2023/06/11 01:31:04;;;;;;;5.90;5.33;;;;;;;14.09;100.00;102187.72;5032567;28;20801;-46
2023/06/11 01:33:35;;;;;;;5.67;5.17;;;;;;;14.06;100.00;102190.75;5031897;28;20478;-43
2023/06/11 01:36:05;;;;;;;8.83;5.07;;;;;;;14.07;100.00;102184.34;5032604;28;20435;-43
2023/06/11 01:38:41;;;;;;;5.53;5.20;;;;;;;14.05;100.00;102191.75;5032683;28;20436;-44
2023/06/11 01:41:11;;;;;;;6.70;5.13;;;;;;;14.06;100.00;102182.72;5032473;28;21005;-46
2023/06/11 01:43:41;;;;;;;6.00;5.47;;;;;;;14.05;100.00;102190.94;5031650;28;20580;-46
2023/06/11 01:46:08;;;;;;;7.60;5.57;;;;;;;14.05;100.00;102186.41;5032314;28;20542;-43
2023/06/11 01:48:36;;;;;;;6.10;5.37;;;;;;;14.03;100.00;102187.59;5032239;28;20478;-43
2023/06/11 01:51:04;;;;;;;9.67;5.87;;;;;;;14.00;100.00;102196.03;5032371;28;20463;-44
2023/06/11 01:53:32;;;;;;;8.00;5.43;;;;;;;14.00;100.00;102190.66;5031658;28;20470;-46
2023/06/11 01:56:00;;;;;;;5.40;4.87;;;;;;;13.99;100.00;102191.66;5032220;28;20428;-49
2023/06/11 01:58:28;;;;;;;7.07;6.43;;;;;;;13.98;100.00;102195.38;5032059;28;20460;-44
2023/06/11 02:00:58;;;;;;;7.67;6.70;;;;;;;13.93;100.00;102184.34;5032335;28;20463;-45
2023/06/11 02:03:26;;;;;;;8.97;6.10;;;;;;;13.95;100.00;102187.69;5031579;28;20472;-44
2023/06/11 02:05:54;;;;;;;14.07;6.60;;;;;;;13.94;100.00;102183.34;5032006;28;20471;-45
2023/06/11 02:08:22;;;;;;;8.90;6.33;;;;;;;13.92;100.00;102183.50;5032087;28;20487;-47
2023/06/11 02:10:49;;;;;;;6.27;5.80;;;;;;;13.95;100.00;102188.50;5032074;28;20471;-44
2023/06/11 02:13:17;;;;;;;15.17;7.63;;;;;;;13.93;100.00;102189.72;5031196;28;20467;-44
2023/06/11 02:15:45;;;;;;;9.00;7.30;;;;;;;13.95;100.00;102187.69;5031861;28;20526;-44
2023/06/11 02:18:14;;;;;;;7.53;6.93;;;;;;;13.96;100.00;102194.72;5031914;28;20452;-43
2023/06/11 02:20:42;;;;;;;11.60;7.17;;;;;;;13.96;100.00;102173.25;5032022;28;20428;-43
2023/06/11 02:23:10;;;;;;;7.17;6.67;;;;;;;13.93;100.00;102187.03;5031177;28;20468;-46
2023/06/11 02:25:37;;;;;;;8.00;7.03;;;;;;;13.95;100.00;102187.69;5030973;28;20567;-45
2023/06/11 02:28:06;;;;;;;7.63;6.93;;;;;;;13.95;100.00;102176.97;5027471;28;20456;-45
2023/06/11 02:30:34;;;;;;;8.63;7.47;;;;;;;13.97;100.00;102186.50;5031913;28;20782;-45
2023/06/11 02:33:01;;;;;;;8.67;7.10;;;;;;;13.99;100.00;102175.56;5031183;28;20547;-46
2023/06/11 02:35:31;;;;;;;8.23;7.30;;;;;;;13.97;100.00;102191.03;5031832;28;20432;-43
2023/06/11 02:37:59;;;;;;;7.67;7.07;;;;;;;13.99;100.00;102181.78;5031726;28;20460;-43
2023/06/11 02:40:26;;;;;;;11.27;8.00;;;;;;;14.00;100.00;102185.28;5031622;28;20471;-44
2023/06/11 02:42:54;;;;;;;9.40;8.47;;;;;;;13.97;100.00;102178.44;5030882;28;20495;-46
2023/06/11 02:45:22;;;;;;;10.03;7.50;;;;;;;14.00;100.00;102172.72;5031497;28;20518;-47
2023/06/11 02:47:49;;;;;;;8.00;7.30;;;;;;;13.99;100.00;102172.88;5031623;28;20468;-45
2023/06/11 02:50:17;;;;;;;9.43;7.13;;;;;;;13.98;100.00;102168.56;5031605;28;20926;-45
2023/06/11 02:52:47;;;;;;;11.43;8.40;;;;;;;13.98;100.00;102165.88;5030983;28;20468;-44
2023/06/11 02:55:15;;;;;;;8.50;7.70;;;;;;;14.01;100.00;102170.88;5031462;28;20436;-45
2023/06/11 02:57:43;;;;;;;7.80;7.20;;;;;;;14.00;100.00;102167.34;5031362;28;20509;-46
2023/06/11 03:00:12;;;;;;;9.97;9.17;;;;;;;14.05;100.00;102174.84;5031748;28;20496;-46
2023/06/11 03:02:40;;;;;;;8.60;7.67;;;;;;;14.07;100.00;102175.47;5031013;28;20472;-49
2023/06/11 03:05:09;;;;;;;8.57;7.77;;;;;;;14.07;100.00;102184.34;5035317;28;20554;-43
2023/06/11 03:07:37;;;;;;;8.60;8.00;;;;;;;14.11;100.00;102182.97;5035181;28;20539;-46
2023/06/11 03:10:07;;;;;;;8.53;7.93;;;;;;;14.18;100.00;102189.28;5035535;28;20439;-46
2023/06/11 03:12:35;;;;;;;11.17;8.60;;;;;;;14.21;100.00;102180.03;5034727;28;20463;-46
2023/06/11 03:15:03;;;;;;;11.00;8.20;;;;;;;14.29;100.00;102174.56;5035001;28;20462;-46
2023/06/11 03:17:31;;;;;;;9.70;8.63;;;;;;;14.34;100.00;102174.84;5034995;28;20510;-43
2023/06/11 03:19:58;;;;;;;10.57;9.27;;;;;;;14.36;100.00;102176.34;5035025;28;20440;-44
2023/06/11 03:22:26;;;;;;;9.13;8.13;;;;;;;14.44;100.00;102169.22;5034263;28;20460;-44
2023/06/11 03:24:54;;;;;;;9.83;8.83;;;;;;;14.57;100.00;102167.53;5034921;28;20937;-44
2023/06/11 03:27:23;;;;;;;8.63;7.93;;;;;;;14.97;100.00;102171.47;5031043;28;20457;-44
2023/06/11 03:29:51;;;;;;;11.80;8.67;;;;;;;15.31;100.00;102157.34;5034880;28;21009;-46
2023/06/11 03:32:19;;;;;;;9.60;8.87;;;;;;;15.36;100.00;102169.19;5034293;28;20460;-44
2023/06/11 03:34:47;;;;;;;9.70;8.53;;;;;;;15.38;100.00;102166.31;5034744;28;20438;-45
2023/06/11 03:37:14;;;;;;;11.47;8.20;;;;;;;15.33;100.00;102158.81;5034950;28;20486;-44
2023/06/11 03:39:43;;;;;;;9.17;8.30;;;;;;;15.32;100.00;102177.84;5034958;28;20478;-46
2023/06/11 03:42:10;;;;;;;10.20;8.03;;;;;;;15.27;100.00;102174.88;5034193;28;20945;-46
2023/06/11 03:44:39;;;;;;;8.43;7.63;;;;;;;15.29;100.00;102183.59;5034636;28;20436;-43
2023/06/11 03:47:07;;;;;;;12.47;8.60;;;;;;;15.34;100.00;102173.09;5034479;28;20904;-44
2023/06/11 03:49:35;;;;;;;8.47;7.63;;;;;;;15.35;100.00;102172.88;5034625;28;20432;-43
2023/06/11 03:52:03;;;;;;;8.97;7.87;;;;;;;15.39;100.00;102179.53;5034126;28;20468;-44
2023/06/11 03:54:31;;;;;;;9.83;8.93;;;;;;;15.53;100.00;102179.72;5034408;28;20432;-43
2023/06/11 03:56:59;;;;;;;8.17;7.40;;;;;;;15.60;100.00;102184.09;5034511;28;21000;-44
2023/06/11 03:59:26;;;;;;;8.27;7.70;;;;;;;15.68;100.00;102173.19;5034590;28;20463;-44
2023/06/11 04:01:56;;;;;;;7.70;7.00;;;;;;;15.80;100.00;102177.00;5033530;28;20980;-43
2023/06/11 04:04:23;;;;;;;8.60;7.70;;;;;;;15.86;100.00;102178.09;5034277;28;20496;-46
2023/06/11 04:06:51;;;;;;;7.80;7.07;;;;;;;15.98;100.00;102181.88;5034456;28;20863;-46
2023/06/11 04:09:19;;;;;;;10.93;7.17;;;;;;;16.08;100.00;102181.53;5034161;28;20523;-45
2023/06/11 04:11:47;;;;;;;8.57;7.37;;;;;;;16.01;100.00;102176.94;5033989;28;20436;-44
2023/06/11 04:14:15;;;;;;;7.70;7.00;;;;;;;16.11;100.00;102178.44;5033510;28;20460;-48
2023/06/11 04:16:43;;;;;;;7.77;7.13;;;;;;;16.14;100.00;102178.06;5033972;28;20938;-45
2023/06/11 04:19:12;;;;;;;10.00;7.40;;;;;;;16.11;100.00;102175.75;5034351;28;20435;-44
2023/06/11 04:21:40;;;;;;;9.87;8.50;;;;;;;16.08;100.00;102171.59;5033825;28;20436;-47
2023/06/11 04:24:08;;;;;;;9.13;7.50;;;;;;;16.18;100.00;102180.16;5033501;28;20514;-44
2023/06/11 04:26:36;;;;;;;7.50;6.80;;;;;;;16.35;100.00;102172.59;5033604;28;20486;-44
2023/06/11 04:29:04;;;;;;;7.50;6.90;;;;;;;17.25;100.00;102177.66;5030302;28;20436;-46
2023/06/11 04:31:32;;;;;;;10.67;7.30;;;;;;;18.15;100.00;102169.75;5013645;28;20945;-48
2023/06/11 04:34:02;;;;;;;9.00;7.00;;;;;;;18.86;100.00;102162.41;5013589;28;20471;-48
2023/06/11 04:36:32;;;;;;;6.40;5.80;;;;;;;19.73;100.00;102161.56;5014121;28;20961;-47
2023/06/11 04:39:02;;;;;;;9.87;6.50;;;;;;;20.03;100.00;102148.97;5014187;28;20799;-46
2023/06/11 04:41:31;;;;;;;9.63;7.53;;;;;;;20.37;100.00;102142.97;5013733;28;20425;-45
2023/06/11 04:44:00;;;;;;;7.37;5.73;;;;;;;20.86;100.00;102136.47;5013580;28;20823;-47
2023/06/11 04:46:28;;;;;;;5.97;5.30;;;;;;;21.20;100.00;102134.13;5013775;28;20563;-48
2023/06/11 04:48:59;;;;;;;7.20;5.97;;;;;;;21.43;100.00;102136.84;5014222;28;20775;-44
2023/06/11 04:51:32;;;;;;;6.47;5.27;;;;;;;21.69;100.00;102133.66;5013675;28;20514;-46
2023/06/11 04:54:07;;;;;;;6.03;5.50;;;;;;;21.72;100.00;102130.50;5013390;28;20464;-48
2023/06/11 04:56:34;;;;;;;7.30;6.00;;;;;;;21.60;100.00;102134.25;5013972;28;20476;-46
2023/06/11 04:59:03;;;;;;;6.50;5.20;;;;;;;21.83;100.00;102134.28;5013937;28;20440;-45
2023/06/11 05:01:32;;;;;;;11.27;5.90;;;;;;;21.97;100.00;102125.66;5013442;28;20803;-45
2023/06/11 05:04:00;;;;;;;5.37;4.87;;;;;;;22.13;98.87;102126.81;5013110;28;20559;-44
2023/06/11 05:06:27;;;;;;;8.50;6.03;;;;;;;22.69;98.24;102127.97;5013473;28;20919;-52
2023/06/11 05:08:55;;;;;;;8.07;5.23;;;;;;;22.50;91.39;102135.44;5013627;28;20858;-47
2023/06/11 05:11:24;;;;;;;5.50;4.97;;;;;;;22.34;92.21;102134.31;5013499;28;20866;-44
2023/06/11 05:13:52;;;;;;;5.17;4.70;;;;;;;22.74;92.97;102128.03;5013010;28;20568;-46
2023/06/11 05:16:21;;;;;;;5.50;4.53;;;;;;;23.12;89.19;102126.28;5013248;28;20428;-47
2023/06/11 05:18:49;;;;;;;7.00;4.57;;;;;;;23.14;86.39;102129.63;5013255;28;20444;-49
2023/06/11 05:21:16;;;;;;;5.90;4.60;;;;;;;23.48;89.17;102132.34;5013131;28;20460;-46
2023/06/11 05:23:44;;;;;;;6.30;4.70;;;;;;;23.40;83.71;102130.88;5012493;28;20484;-48
2023/06/11 05:26:12;;;;;;;8.97;5.17;;;;;;;23.52;82.56;102142.50;5012621;28;20560;-49
2023/06/11 05:28:42;;;;;;;8.03;4.80;;;;;;;23.60;81.79;102135.81;5026185;28;20440;-44
2023/06/11 05:31:12;;;;;;;5.93;4.70;;;;;;;23.31;88.49;102136.94;5033029;28;20478;-48
2023/06/11 05:33:40;;;;;;;10.20;4.90;;;;;;;23.30;81.54;102146.16;5032134;28;20842;-47
2023/06/11 05:36:08;;;;;;;7.37;5.20;;;;;;;23.27;82.35;102139.31;5032879;28;20470;-46
2023/06/11 05:38:37;;;;;;;7.93;5.50;;;;;;;24.25;79.40;102124.22;5032281;28;20514;-44
2023/06/11 05:41:05;;;;;;;5.80;5.23;;;;;;;24.79;79.01;102125.88;5032627;28;20521;-45
2023/06/11 05:43:33;;;;;;;7.83;5.17;;;;;;;25.11;70.65;102128.69;5031957;28;20471;-44
2023/06/11 05:46:02;;;;;;;7.97;4.90;;;;;;;24.74;71.46;102126.69;5032261;28;20431;-49
2023/06/11 05:48:30;;;;;;;5.00;4.50;;;;;;;25.43;67.81;102132.22;5032543;28;20538;-47
2023/06/11 05:50:58;;;;;;;5.70;4.60;;;;;;;25.31;66.85;102137.88;5032599;28;20440;-48
2023/06/11 05:53:26;;;;;;;9.03;5.37;;;;;;;25.78;66.29;102134.41;5031620;28;20510;-45
2023/06/11 05:55:53;;;;;;;7.43;4.40;;;;;;;26.18;67.95;102133.81;5032255;28;20437;-47
2023/06/11 05:58:23;;;;;;;5.40;4.47;;;;;;;26.16;62.70;102158.72;5032020;28;20498;-46
2023/06/11 06:00:51;;;;;;;9.33;5.20;;;;;;;26.14;62.81;102135.41;5031950;28;21105;-47
2023/06/11 06:03:20;;;;;;;8.23;4.93;;;;;;;26.27;62.58;102137.69;5030866;28;20472;-44
2023/06/11 06:05:48;;;;;;;9.17;4.47;;;;;;;26.16;62.24;102134.09;5032110;28;20501;-47
2023/06/11 06:08:16;;;;;;;5.53;4.53;;;;;;;26.62;63.31;102142.44;5031831;28;20475;-44
2023/06/11 06:10:44;;;;;;;5.00;4.60;;;;;;;26.28;62.01;102134.66;5032053;28;20930;-45
2023/06/11 06:13:11;;;;;;;7.07;4.20;;;;;;;26.70;62.29;102140.00;5031170;28;20495;-44
2023/06/11 06:15:41;;;;;;;8.30;4.70;;;;;;;27.27;58.99;102128.06;5031900;28;20432;-47
2023/06/11 06:18:10;;;;;;;6.70;5.00;;;;;;;27.14;60.84;102132.16;5032132;28;20451;-50
2023/06/11 06:20:40;;;;;;;6.83;5.13;;;;;;;27.03;57.90;102135.19;5032033;28;20439;-47
2023/06/11 06:23:08;;;;;;;5.77;4.90;;;;;;;27.11;58.71;102145.56;5031337;28;20996;-47
2023/06/11 06:25:37;;;;;;;13.47;5.20;;;;;;;26.70;58.37;102140.00;5031823;28;20527;-48
2023/06/11 06:28:06;;;;;;;5.33;4.83;;;;;;;26.72;58.21;102126.06;5027770;28;20544;-44
2023/06/11 06:30:34;;;;;;;6.13;4.97;;;;;;;26.39;59.36;102130.91;5032013;28;20432;-48
2023/06/11 06:33:02;;;;;;;6.90;4.83;;;;;;;26.88;59.97;102130.50;5011809;28;20252;-44
2023/06/11 06:35:32;;;;;;;5.13;4.33;;;;;;;27.02;57.85;102133.53;5012061;28;20432;-47
2023/06/11 06:38:01;;;;;;;6.10;4.60;;;;;;;26.74;59.19;102127.44;5012768;28;20228;-49
2023/06/11 06:40:29;;;;;;;6.53;4.97;;;;;;;26.54;59.92;102137.50;5016026;28;20432;-44
2023/06/11 06:42:57;;;;;;;5.70;4.23;;;;;;;26.79;58.22;102138.41;5015457;28;20846;-45
2023/06/11 06:45:24;;;;;;;8.03;4.80;;;;;;;26.32;60.78;102137.69;5016091;28;20548;-47
2023/06/11 06:47:52;;;;;;;8.63;4.90;;;;;;;26.13;60.34;102136.50;5015653;28;20479;-44
2023/06/11 06:50:20;;;;;;;5.80;5.20;;;;;;;26.31;60.44;102142.34;5015921;28;20452;-47
2023/06/11 06:52:48;;;;;;;5.87;5.27;;;;;;;26.21;62.29;102139.59;5015136;28;20456;-50
2023/06/11 06:55:17;;;;;;;9.70;5.13;;;;;;;26.52;62.91;102143.25;5015788;28;20440;-46
2023/06/11 06:57:45;;;;;;;7.07;5.20;;;;;;;26.20;60.62;102146.13;5015910;28;20531;-47
2023/06/11 07:00:14;;;;;;;5.37;4.80;;;;;;;26.25;60.75;102151.63;5016175;28;20791;-44
2023/06/11 07:02:42;;;;;;;5.60;5.00;;;;;;;25.98;62.51;102148.19;5015134;28;20477;-46
2023/06/11 07:05:10;;;;;;;7.90;5.30;;;;;;;26.12;61.71;102163.03;5015578;28;20436;-46
2023/06/11 07:07:38;;;;;;;5.97;5.50;;;;;;;25.97;61.80;102149.28;5015559;28;20976;-45
2023/06/11 07:10:10;;;;;;;5.23;4.73;;;;;;;25.94;61.79;102144.34;5016003;28;20433;-47
2023/06/11 07:12:40;;;;;;;6.40;4.80;;;;;;;25.91;61.32;102154.97;5014901;28;20993;-49
2023/06/11 07:15:08;;;;;;;6.50;4.43;;;;;;;25.90;61.16;102145.13;5015510;28;20440;-46
2023/06/11 07:17:36;;;;;;;6.63;5.10;;;;;;;26.12;61.03;102148.53;5015399;28;20456;-46
2023/06/11 07:20:07;;;;;;;6.10;4.90;;;;;;;26.64;60.50;102157.50;5015828;28;20432;-45
2023/06/11 07:22:35;;;;;;;5.37;4.60;;;;;;;25.85;61.48;102152.22;5014887;28;20468;-45
2023/06/11 07:25:03;;;;;;;5.77;5.03;;;;;;;26.45;61.13;102144.59;5015469;28;20460;-44
2023/06/11 07:27:31;;;;;;;6.73;4.47;;;;;;;26.15;61.17;102159.78;5018649;28;20475;-44
2023/06/11 07:30:00;;;;;;;8.03;5.40;;;;;;;26.39;62.43;102151.97;5034962;28;20569;-47
2023/06/11 07:32:27;;;;;;;7.70;4.90;;;;;;;26.35;62.07;102159.03;5034200;28;20534;-48
2023/06/11 07:34:55;;;;;;;7.43;5.20;;;;;;;25.83;62.18;102156.31;5035074;28;20419;-46
2023/06/11 07:37:23;;;;;;;7.00;5.10;;;;;;;25.56;63.20;102161.03;5035034;28;20486;-46
2023/06/11 07:39:51;;;;;;;5.57;4.80;;;;;;;25.67;63.62;102151.81;5034904;28;20435;-49
2023/06/11 07:42:20;;;;;;;8.70;5.50;;;;;;;25.62;65.34;102152.63;5033342;28;21048;-46
2023/06/11 07:44:47;;;;;;;9.83;5.80;;;;;;;25.68;65.23;102151.56;5033825;28;20509;-47
2023/06/11 07:47:16;;;;;;;5.73;5.20;;;;;;;25.49;64.63;102146.78;5034324;28;20529;-49
2023/06/11 07:49:44;;;;;;;5.53;5.03;;;;;;;25.62;64.62;102143.59;5034121;28;20435;-47
2023/06/11 07:52:12;;;;;;;6.33;4.83;;;;;;;25.81;63.25;102150.25;5033758;28;20965;-46
2023/06/11 07:54:40;;;;;;;6.43;4.57;;;;;;;26.06;61.98;102160.53;5034611;28;20892;-49
2023/06/11 07:57:08;;;;;;;9.67;4.77;;;;;;;25.27;63.17;102157.75;5034565;28;20490;-45
2023/06/11 07:59:37;;;;;;;6.07;4.80;;;;;;;25.40;63.46;102148.31;5034130;28;21302;-49
2023/06/11 08:02:06;;;;;;;9.07;4.87;;;;;;;25.29;64.06;102153.72;5033894;28;20436;-44
2023/06/11 08:04:36;;;;;;;5.00;4.60;;;;;;;24.87;65.61;102146.47;5034045;28;20527;-46
2023/06/11 08:07:04;;;;;;;6.17;5.60;;;;;;;24.68;69.23;102148.69;5034148;28;20452;-49
2023/06/11 08:09:34;;;;;;;6.00;5.37;;;;;;;24.61;66.12;102150.81;5034080;28;21023;-49
2023/06/11 08:12:03;;;;;;;9.00;5.40;;;;;;;23.81;70.11;102156.81;5033321;28;20439;-45
2023/06/11 08:14:31;;;;;;;6.20;5.10;;;;;;;23.40;75.15;102147.22;5034290;28;20461;-45
2023/06/11 08:16:59;;;;;;;8.13;5.53;;;;;;;23.09;78.70;102148.56;5034525;28;20459;-44
2023/06/11 08:19:28;;;;;;;6.23;5.57;;;;;;;22.79;81.55;102147.19;5034088;28;20505;-46
2023/06/11 08:21:57;;;;;;;6.83;5.83;;;;;;;22.77;83.03;102146.59;5033375;28;20427;-45
2023/06/11 08:24:25;;;;;;;6.07;5.43;;;;;;;22.49;87.15;102141.97;5033879;28;20470;-47
2023/06/11 08:26:53;;;;;;;10.33;5.00;;;;;;;22.97;85.81;102146.97;5031178;28;20455;-46
2023/06/11 08:29:21;;;;;;;11.30;6.03;;;;;;;23.08;87.29;102148.81;5032591;28;20463;-46
2023/06/11 08:31:48;;;;;;;9.40;5.80;;;;;;;23.16;88.69;102148.41;5033573;28;20459;-47
2023/06/11 08:34:16;;;;;;;6.50;5.43;;;;;;;23.09;85.25;102136.84;5032866;28;20463;-45
2023/06/11 08:36:45;;;;;;;5.77;5.00;;;;;;;23.15;90.04;102144.03;5033674;28;20452;-47
2023/06/11 08:39:14;;;;;;;6.00;5.40;;;;;;;23.28;87.96;102137.44;5033608;28;20493;-50
2023/06/11 08:41:42;;;;;;;6.50;5.90;;;;;;;23.50;84.13;102147.38;5033647;28;20478;-48
2023/06/11 08:44:10;;;;;;;6.03;5.40;;;;;;;23.65;82.97;102135.91;5032512;28;20860;-50
2023/06/11 08:46:39;;;;;;;7.07;5.70;;;;;;;23.60;81.26;102124.91;5033487;28;20494;-47
2023/06/11 08:49:08;;;;;;;5.83;5.33;;;;;;;23.06;82.39;102145.50;5033366;28;20503;-46
2023/06/11 08:51:38;;;;;;;5.97;4.97;;;;;;;23.42;81.84;102142.34;5033079;28;20482;-44
2023/06/11 08:54:07;;;;;;;6.33;5.73;;;;;;;23.22;83.10;102133.81;5032857;28;20527;-45
2023/06/11 08:56:36;;;;;;;6.47;5.90;;;;;;;23.08;83.97;102137.94;5033278;28;20494;-47
2023/06/11 08:59:04;;;;;;;6.07;5.43;;;;;;;23.26;84.14;102145.03;5033469;28;20466;-44
2023/06/11 09:01:32;;;;;;;6.47;5.73;;;;;;;23.17;86.33;102154.69;5031673;28;20941;-44
2023/06/11 09:04:00;;;;;;;6.37;5.10;;;;;;;22.98;84.13;102145.91;5032828;28;21012;-46
2023/06/11 09:06:29;;;;;;;7.30;5.10;;;;;;;22.87;86.36;102154.97;5033057;28;20438;-47
2023/06/11 09:08:58;;;;;;;8.10;6.20;;;;;;;22.76;87.68;102148.47;5033293;28;20471;-46
2023/06/11 09:11:32;;;;;;;7.10;5.80;;;;;;;22.71;86.50;102150.28;5032870;28;20432;-47
2023/06/11 09:14:01;;;;;;;6.10;5.47;;;;;;;22.65;84.75;102156.69;5031678;28;20468;-45
2023/06/11 09:16:29;;;;;;;7.93;6.17;;;;;;;22.40;86.36;102157.00;5030423;28;20432;-45
2023/06/11 09:18:57;;;;;;;12.53;5.27;;;;;;;22.31;86.99;102155.72;5032817;28;20798;-49
2023/06/11 09:21:25;;;;;;;6.23;5.70;;;;;;;22.60;85.04;102157.41;5032531;28;20462;-44
2023/06/11 09:23:53;;;;;;;6.30;5.70;;;;;;;22.71;83.70;102155.72;5032210;28;20483;-46
2023/06/11 09:26:22;;;;;;;9.67;5.40;;;;;;;22.92;81.55;102155.03;5032795;28;20460;-46
2023/06/11 09:28:53;;;;;;;11.00;5.53;;;;;;;23.11;79.66;102160.03;5026960;28;20509;-46
2023/06/11 09:31:22;;;;;;;7.93;5.63;;;;;;;23.12;77.37;102137.19;5032274;28;20926;-44
2023/06/11 09:33:53;;;;;;;5.63;5.13;;;;;;;23.21;76.52;102151.19;5031994;28;20486;-44
2023/06/11 09:36:22;;;;;;;6.77;5.70;;;;;;;23.10;76.12;102169.25;5032790;28;20442;-47
2023/06/11 09:38:51;;;;;;;5.33;4.87;;;;;;;22.94;76.86;102170.03;5032345;28;20460;-44
2023/06/11 09:41:19;;;;;;;6.23;5.57;;;;;;;22.94;77.24;102158.34;5031999;28;20490;-44
2023/06/11 09:43:52;;;;;;;9.40;5.20;;;;;;;23.16;79.18;102153.84;5031157;28;20992;-47
2023/06/11 09:46:25;;;;;;;8.73;5.40;;;;;;;23.23;74.73;102164.56;5032311;28;20937;-45
2023/06/11 09:48:53;;;;;;;5.37;5.07;;;;;;;23.27;73.23;102154.81;5032265;28;20511;-46
2023/06/11 09:51:23;;;;;;;5.83;5.30;;;;;;;23.48;73.62;102159.56;5032269;28;20494;-46
2023/06/11 09:53:52;;;;;;;6.93;4.90;;;;;;;23.31;72.11;102181.31;5031934;28;20468;-44
2023/06/11 09:56:21;;;;;;;4.87;4.40;;;;;;;23.44;71.69;102163.88;5031696;28;20440;-44
2023/06/11 09:58:49;;;;;;;5.93;5.40;;;;;;;23.54;70.28;102170.31;5032552;28;20845;-48
2023/06/11 10:01:18;;;;;;;8.60;5.50;;;;;;;23.45;67.51;102169.06;5032095;28;20490;-44
2023/06/11 10:03:48;;;;;;;6.27;5.17;;;;;;;23.43;68.20;102163.06;5031590;28;20494;-44
2023/06/11 10:06:20;;;;;;;9.80;5.63;;;;;;;23.55;67.86;102180.13;5031872;28;21008;-44
2023/06/11 10:08:52;;;;;;;6.57;5.13;;;;;;;23.49;66.80;102178.41;5031813;28;20464;-44
2023/06/11 10:11:22;;;;;;;6.30;5.70;;;;;;;23.69;68.14;102172.44;5031476;28;20431;-45
2023/06/11 10:13:59;;;;;;;5.87;5.47;;;;;;;23.79;69.39;102169.03;5031517;28;20586;-47
2023/06/11 10:16:28;;;;;;;5.53;5.13;;;;;;;23.62;65.91;102188.94;5031757;28;20469;-44
2023/06/11 10:19:06;;;;;;;7.47;6.77;;;;;;;23.53;65.09;102184.19;5028579;28;20428;-48
2023/06/11 10:21:36;;;;;;;7.27;5.60;;;;;;;23.72;65.38;102171.09;5031517;28;20431;-46
2023/06/11 10:24:05;;;;;;;5.57;5.17;;;;;;;24.03;64.97;102179.50;5030983;28;20467;-46
2023/06/11 10:26:36;;;;;;;6.57;5.17;;;;;;;23.72;65.41;102180.09;5031293;28;20809;-44
2023/06/11 10:29:11;;;;;;;7.07;5.20;;;;;;;23.78;64.94;102176.38;5024309;28;20467;-49
2023/06/11 10:31:40;;;;;;;7.73;5.27;;;;;;;24.11;65.83;102168.19;4991822;28;20776;-45
2023/06/11 10:34:15;;;;;;;6.93;5.03;;;;;;;24.20;62.68;102160.38;4992277;28;20503;-47
2023/06/11 10:36:43;;;;;;;6.97;4.80;;;;;;;24.17;63.53;102177.25;4992773;28;20539;-49
2023/06/11 10:39:15;;;;;;;5.43;5.03;;;;;;;24.17;64.25;102163.63;4992260;28;20429;-45
2023/06/11 10:41:44;;;;;;;5.20;4.70;;;;;;;24.13;62.61;102171.47;4998516;28;20452;-44
2023/06/11 10:44:12;;;;;;;5.33;4.90;;;;;;;24.13;63.76;102162.50;5019591;28;20495;-45
2023/06/11 10:46:48;;;;;;;7.47;5.50;;;;;;;24.24;63.82;102164.28;5030309;28;20459;-44
2023/06/11 10:49:20;;;;;;;5.97;4.77;;;;;;;24.06;63.02;102176.28;5009860;28;20533;-47
2023/06/11 10:51:50;;;;;;;5.53;5.13;;;;;;;24.14;63.12;102180.47;5030107;28;20481;-46
2023/06/11 10:54:25;;;;;;;6.27;5.33;;;;;;;24.12;66.07;102169.84;5008937;28;20452;-44
2023/06/11 10:56:53;;;;;;;5.10;4.70;;;;;;;24.22;66.65;102169.16;5026129;28;21007;-47
2023/06/11 10:59:21;;;;;;;4.83;4.53;;;;;;;24.39;63.92;102178.09;5022941;28;20424;-47
2023/06/11 11:01:52;;;;;;;6.60;6.07;;;;;;;24.21;63.30;102179.22;5029936;28;20466;-46
2023/06/11 11:04:22;;;;;;;6.80;4.90;;;;;;;24.37;63.97;102174.78;5029004;28;20972;-45
2023/06/11 11:06:52;;;;;;;6.07;5.30;;;;;;;24.17;61.56;102179.97;5029658;28;20481;-44
2023/06/11 11:09:21;;;;;;;5.90;5.30;;;;;;;24.15;62.47;102182.97;5029927;28;20510;-44
2023/06/11 11:11:49;;;;;;;5.40;5.10;;;;;;;23.94;60.45;102172.81;5028149;28;20434;-45
2023/06/11 11:14:17;;;;;;;5.17;4.67;;;;;;;23.94;60.15;102167.38;5030788;28;21091;-47
2023/06/11 11:16:47;;;;;;;4.97;4.50;;;;;;;24.37;59.70;102166.59;5029821;28;20818;-46
2023/06/11 11:19:15;;;;;;;7.73;5.70;;;;;;;24.36;58.78;102156.78;5027722;28;20490;-44
2023/06/11 11:21:50;;;;;;;6.87;5.40;;;;;;;24.28;56.78;102168.16;5028426;28;20809;-46
2023/06/11 11:24:18;;;;;;;5.57;5.10;;;;;;;24.39;55.66;102156.28;5027467;28;20479;-44
2023/06/11 11:26:46;;;;;;;5.63;5.20;;;;;;;24.45;55.64;102151.72;5030878;28;20475;-45
2023/06/11 11:29:14;;;;;;;7.50;5.30;;;;;;;24.20;57.49;102163.94;5031133;28;20431;-45